Time;durP1;ratioP1;P1;durP2;ratioP2;P2;SDS_P1;SDS_P2;PMS_P1;PMS_P2;Temp;Humidity;BMP_temperature;BMP_pressure;BME280_temperature;BME280_humidity;BME280_pressure;Samples;Min_cycle;Max_cycle;Signal;HPM_P1;HPM_P2
2021/12/15 00:02:20;;;;;;;5.15;3.10;;;15.30;83.90;;;;;;5127389;27;45362;-74
2021/12/15 00:04:50;;;;;;;5.28;3.00;;;15.30;82.80;;;;;;5126931;27;45497;-74
2021/12/15 00:07:17;;;;;;;3.78;2.58;;;15.30;82.60;;;;;;5127277;27;45434;-74
2021/12/15 00:09:45;;;;;;;6.30;3.10;;;15.30;83.60;;;;;;5120336;27;46406;-74
2021/12/15 00:12:13;;;;;;;7.82;3.10;;;15.30;82.80;;;;;;5129388;27;45849;-74
2021/12/15 00:14:41;;;;;;;3.90;2.83;;;15.10;83.40;;;;;;5137450;27;45309;-73
2021/12/15 00:17:09;;;;;;;5.50;3.00;;;15.40;82.60;;;;;;5127629;27;45351;-73
2021/12/15 00:19:37;;;;;;;4.90;2.83;;;15.50;82.40;;;;;;5128794;27;47379;-73
2021/12/15 00:22:05;;;;;;;6.25;3.00;;;15.40;82.70;;;;;;5133868;27;45226;-73
2021/12/15 00:24:32;;;;;;;5.97;3.05;;;15.40;83.10;;;;;;5134792;27;45160;-74
2021/12/15 00:27:01;;;;;;;3.85;2.63;;;15.20;82.60;;;;;;5128918;27;45396;-73
2021/12/15 00:29:28;;;;;;;5.13;3.00;;;15.30;83.30;;;;;;5128953;27;45228;-73
2021/12/15 00:31:56;;;;;;;4.93;2.88;;;15.20;82.20;;;;;;5128555;27;45651;-74
2021/12/15 00:34:24;;;;;;;4.78;3.22;;;15.20;82.50;;;;;;5129733;27;45249;-74
2021/12/15 00:36:50;;;;;;;4.97;3.00;;;15.10;82.40;;;;;;5129715;27;45321;-74
2021/12/15 00:39:22;;;;;;;5.65;2.58;;;15.20;81.80;;;;;;5129480;27;46191;-74
2021/12/15 00:41:49;;;;;;;8.30;2.60;;;15.20;81.70;;;;;;5129278;27;45292;-74
2021/12/15 00:44:18;;;;;;;4.20;2.60;;;15.30;83.00;;;;;;5128059;27;45237;-74
2021/12/15 00:46:45;;;;;;;5.30;2.60;;;15.40;82.10;;;;;;5129558;27;45200;-74
2021/12/15 00:49:12;;;;;;;5.72;2.92;;;15.50;81.20;;;;;;5128159;27;45328;-74
2021/12/15 00:51:40;;;;;;;5.43;2.83;;;15.40;82.60;;;;;;5129445;27;45452;-73
2021/12/15 00:54:09;;;;;;;7.28;2.97;;;15.30;81.70;;;;;;5128515;27;45205;-73
2021/12/15 00:56:36;;;;;;;4.05;2.42;;;15.20;81.60;;;;;;5129765;27;45159;-73
2021/12/15 00:59:05;;;;;;;7.18;2.83;;;15.10;82.80;;;;;;5121565;27;45210;-73
2021/12/15 01:01:35;;;;;;;5.60;2.60;;;15.00;82.80;;;;;;5121779;27;45405;-73
2021/12/15 01:04:02;;;;;;;8.15;2.58;;;15.20;82.90;;;;;;5128675;27;45348;-74
2021/12/15 01:06:32;;;;;;;4.75;2.88;;;15.20;83.30;;;;;;5127772;27;45467;-73
2021/12/15 01:09:02;;;;;;;6.60;2.70;;;15.20;83.20;;;;;;5128939;27;47050;-74
2021/12/15 01:11:47;;;;;;;8.35;3.20;;;15.10;83.30;;;;;;5129426;27;45243;-74
2021/12/15 01:19:46;;;;;;;9.73;3.47;;;15.20;82.80;;;;;;5128263;27;45314;-74
2021/12/15 01:20:14;;;;;;;6.30;2.75;;;15.30;82.80;;;;;;5124751;27;45368;-74
2021/12/15 01:22:46;;;;;;;4.88;2.40;;;15.30;82.10;;;;;;5127981;27;45271;-73
2021/12/15 01:25:17;;;;;;;5.65;2.75;;;15.40;82.60;;;;;;5113913;27;45224;-73
2021/12/15 01:27:45;;;;;;;5.05;2.53;;;15.20;82.70;;;;;;5126387;27;45361;-73
2021/12/15 01:30:15;;;;;;;6.68;3.10;;;15.20;83.90;;;;;;5127879;27;46462;-73
2021/12/15 01:32:44;;;;;;;9.60;3.15;;;15.10;83.40;;;;;;5128435;27;45730;-73
2021/12/15 01:35:11;;;;;;;6.65;2.97;;;15.00;84.40;;;;;;5126739;27;45289;-73
2021/12/15 01:37:39;;;;;;;5.13;2.85;;;15.00;85.00;;;;;;5129159;27;45166;-74
2021/12/15 01:40:11;;;;;;;5.80;3.40;;;15.20;83.70;;;;;;5128377;27;45725;-74
2021/12/15 01:42:38;;;;;;;5.88;3.40;;;15.20;83.80;;;;;;5128660;27;45271;-74
2021/12/15 01:48:02;;;;;;;6.03;3.10;;;15.10;84.80;;;;;;5108077;27;45132;-74
2021/12/15 01:50:29;;;;;;;8.77;3.35;;;15.20;84.00;;;;;;5128595;27;45349;-74
2021/12/15 01:52:56;;;;;;;7.20;3.47;;;15.10;83.80;;;;;;5127604;27;45292;-74
2021/12/15 01:55:24;;;;;;;5.57;2.80;;;15.00;85.50;;;;;;5128472;27;45267;-73
2021/12/15 01:57:52;;;;;;;8.32;3.55;;;15.20;83.50;;;;;;5114414;27;45438;-73
2021/12/15 02:00:21;;;;;;;6.05;2.85;;;15.20;83.70;;;;;;5126492;27;45472;-73
2021/12/15 02:02:50;;;;;;;4.82;2.83;;;15.20;82.90;;;;;;5128627;27;45313;-73
2021/12/15 02:05:18;;;;;;;6.28;2.92;;;15.20;84.00;;;;;;5127723;27;45227;-73
2021/12/15 02:07:47;;;;;;;7.05;2.85;;;15.10;83.50;;;;;;5127842;27;45286;-74
2021/12/15 02:10:14;;;;;;;5.25;2.92;;;15.10;84.20;;;;;;5127635;27;46996;-74
2021/12/15 02:12:43;;;;;;;5.20;3.05;;;15.10;83.80;;;;;;5111914;27;45250;-74
2021/12/15 02:15:14;;;;;;;4.80;2.53;;;15.20;84.10;;;;;;5127118;27;45509;-74
2021/12/15 02:17:41;;;;;;;3.97;2.72;;;15.20;84.00;;;;;;5130509;27;46140;-74
2021/12/15 02:20:11;;;;;;;4.20;2.50;;;15.30;82.70;;;;;;5131831;27;47039;-73
2021/12/15 02:22:40;;;;;;;4.07;2.90;;;15.30;82.70;;;;;;5139812;27;45214;-73
2021/12/15 02:25:11;;;;;;;5.45;2.60;;;15.30;82.10;;;;;;5131450;27;45219;-73
2021/12/15 02:27:38;;;;;;;4.68;2.42;;;15.00;84.20;;;;;;5129879;27;45358;-73
2021/12/15 02:30:20;;;;;;;4.70;2.92;;;15.20;83.70;;;;;;5131113;27;46210;-73
2021/12/15 02:33:01;;;;;;;4.65;2.60;;;15.10;83.60;;;;;;5129013;27;46119;-74
2021/12/15 02:38:14;;;;;;;7.85;2.85;;;15.10;83.70;;;;;;5131269;27;45218;-74
2021/12/15 02:40:41;;;;;;;7.65;2.70;;;15.00;84.70;;;;;;5130150;27;46330;-74
2021/12/15 02:43:08;;;;;;;4.65;3.08;;;15.20;84.20;;;;;;5131564;27;45223;-73
2021/12/15 02:45:35;;;;;;;6.55;3.08;;;15.20;84.30;;;;;;5130585;27;45175;-73
2021/12/15 02:48:02;;;;;;;4.75;2.90;;;15.10;84.30;;;;;;5131267;27;45275;-73
2021/12/15 02:50:31;;;;;;;8.05;2.95;;;15.30;83.90;;;;;;5131399;27;45300;-73
2021/12/15 02:52:59;;;;;;;5.70;2.88;;;15.20;83.00;;;;;;5130994;27;45194;-73
2021/12/15 02:55:28;;;;;;;8.52;3.20;;;15.30;83.50;;;;;;5130291;27;45130;-74
2021/12/15 02:57:55;;;;;;;4.63;2.95;;;15.20;83.90;;;;;;5130519;27;45411;-74
2021/12/15 03:00:26;;;;;;;3.80;2.47;;;15.10;83.80;;;;;;5131213;27;45600;-74
2021/12/15 03:06:00;;;;;;;5.72;2.70;;;15.20;84.90;;;;;;5076823;27;45402;-74
2021/12/15 03:08:47;;;;;;;4.43;2.63;;;15.10;84.70;;;;;;5052822;27;45327;-74
2021/12/15 03:16:43;;;;;;;5.25;2.47;;;15.30;84.90;;;;;;5031913;27;45309;-74
2021/12/15 03:19:10;;;;;;;5.90;2.75;;;15.30;84.90;;;;;;5037991;28;45180;-74
2021/12/15 03:21:39;;;;;;;6.57;2.65;;;15.10;85.50;;;;;;5040602;28;45233;-74
2021/12/15 03:24:12;;;;;;;5.57;2.72;;;15.30;85.20;;;;;;5039460;28;45489;-74
2021/12/15 03:26:48;;;;;;;3.95;2.78;;;15.10;85.90;;;;;;5040298;28;45514;-74
2021/12/15 03:35:00;;;;;;;5.05;2.38;;;15.20;85.40;;;;;;5027598;28;45395;-74
2021/12/15 03:37:31;;;;;;;7.53;2.45;;;15.20;85.20;;;;;;5026599;28;45233;-74
2021/12/15 03:40:01;;;;;;;8.75;2.88;;;15.20;85.60;;;;;;5039753;28;45197;-74
2021/12/15 03:42:31;;;;;;;8.95;2.92;;;14.90;86.40;;;;;;5040191;28;45256;-74
2021/12/15 03:44:59;;;;;;;9.30;2.50;;;15.10;86.10;;;;;;5039323;27;45377;-74
2021/12/15 03:47:29;;;;;;;8.02;2.42;;;15.20;86.10;;;;;;5035891;28;47189;-74
2021/12/15 03:49:57;;;;;;;3.90;2.47;;;15.20;85.60;;;;;;5020076;28;45238;-74
2021/12/15 03:52:25;;;;;;;7.45;2.60;;;15.20;85.40;;;;;;5033577;28;45469;-74
2021/12/15 03:54:54;;;;;;;4.95;2.42;;;15.20;84.50;;;;;;5040240;27;45186;-74
2021/12/15 03:57:21;;;;;;;5.85;2.70;;;15.30;85.00;;;;;;5039278;28;46692;-74
2021/12/15 03:59:48;;;;;;;3.60;2.30;;;15.40;84.50;;;;;;5032512;28;45333;-74
2021/12/15 04:02:19;;;;;;;8.63;2.63;;;15.10;85.20;;;;;;5031640;28;45277;-74
2021/12/15 04:04:48;;;;;;;7.28;2.60;;;15.20;85.30;;;;;;5039031;27;45320;-74
2021/12/15 04:07:16;;;;;;;4.57;2.25;;;15.20;85.70;;;;;;5038253;27;47343;-74
2021/12/15 04:09:44;;;;;;;3.25;2.05;;;15.10;86.60;;;;;;5063890;27;45543;-74
2021/12/15 04:12:13;;;;;;;5.82;2.30;;;15.20;86.20;;;;;;5037473;27;45441;-74
2021/12/15 04:14:46;;;;;;;5.90;2.17;;;15.20;86.20;;;;;;5038068;27;45166;-74
2021/12/15 04:17:30;;;;;;;5.32;2.20;;;15.20;86.00;;;;;;5025477;28;46470;-74
2021/12/15 04:20:00;;;;;;;5.32;2.00;;;15.30;85.50;;;;;;5008547;28;45259;-74
2021/12/15 04:22:27;;;;;;;4.47;2.10;;;15.20;85.80;;;;;;5018786;28;45278;-74
2021/12/15 04:24:55;;;;;;;4.30;2.38;;;15.20;86.50;;;;;;5017341;28;45592;-74
2021/12/15 04:27:23;;;;;;;4.82;2.20;;;15.20;86.40;;;;;;5026531;28;46118;-74
2021/12/15 04:29:52;;;;;;;6.03;2.40;;;15.20;86.40;;;;;;5024506;27;45208;-74
2021/12/15 04:32:27;;;;;;;4.60;2.25;;;15.10;85.70;;;;;;5027003;28;45223;-74
2021/12/15 04:34:54;;;;;;;7.28;2.28;;;15.10;87.00;;;;;;5026222;28;45672;-74
2021/12/15 04:37:21;;;;;;;4.03;1.90;;;15.10;86.50;;;;;;5025792;28;46213;-74
2021/12/15 04:39:49;;;;;;;6.38;2.25;;;15.10;86.10;;;;;;5023569;27;45281;-74
2021/12/15 04:42:18;;;;;;;4.97;1.98;;;15.20;86.40;;;;;;5015802;28;45301;-74
2021/12/15 04:44:48;;;;;;;6.00;2.15;;;15.20;85.30;;;;;;5008845;27;45482;-74
2021/12/15 04:47:15;;;;;;;4.18;2.00;;;15.20;85.40;;;;;;5025065;28;47744;-73
2021/12/15 04:49:45;;;;;;;4.80;1.92;;;15.20;86.20;;;;;;5025864;28;45195;-74
2021/12/15 04:52:13;;;;;;;7.90;1.70;;;15.20;86.20;;;;;;5025687;28;45297;-74
2021/12/15 04:54:40;;;;;;;6.85;2.20;;;15.20;85.80;;;;;;5023854;27;45125;-74
2021/12/15 04:57:08;;;;;;;6.95;2.05;;;15.20;85.80;;;;;;5025669;28;46190;-74
2021/12/15 04:59:35;;;;;;;8.23;2.28;;;15.20;86.20;;;;;;5025556;28;45203;-74
2021/12/15 05:02:05;;;;;;;3.35;1.70;;;15.30;86.40;;;;;;5025024;27;45261;-74
2021/12/15 05:04:32;;;;;;;3.08;1.90;;;15.20;88.20;;;;;;5024768;27;45611;-74
2021/12/15 05:06:59;;;;;;;4.18;1.60;;;15.30;87.60;;;;;;5037722;27;46424;-74
2021/12/15 05:09:26;;;;;;;6.38;2.60;;;15.40;86.80;;;;;;5024609;27;45661;-74
2021/12/15 05:11:54;;;;;;;5.88;2.17;;;15.30;87.00;;;;;;5021331;28;45330;-74
2021/12/15 05:14:23;;;;;;;3.30;1.67;;;15.40;87.20;;;;;;5033730;27;45401;-74
2021/12/15 05:16:51;;;;;;;4.45;1.80;;;15.30;87.10;;;;;;5284284;22;46310;-73
2021/12/15 05:19:20;;;;;;;3.45;1.88;;;15.20;88.40;;;;;;5087830;28;44880;-73
2021/12/15 05:21:50;;;;;;;3.22;1.70;;;15.00;89.30;;;;;;5089831;28;44964;-73
2021/12/15 05:24:30;;;;;;;4.30;1.60;;;15.00;89.70;;;;;;5091388;28;44707;-73
2021/12/15 05:26:58;;;;;;;3.20;1.67;;;15.00;89.70;;;;;;5089573;28;45321;-73
2021/12/15 05:29:25;;;;;;;3.05;1.88;;;15.10;88.80;;;;;;5091238;28;44658;-73
2021/12/15 05:31:52;;;;;;;3.03;1.90;;;15.20;88.70;;;;;;5091767;28;44705;-73
2021/12/15 05:34:20;;;;;;;4.20;2.20;;;15.20;88.30;;;;;;5091385;28;45000;-73
2021/12/15 05:36:48;;;;;;;5.90;1.80;;;15.00;88.90;;;;;;5089698;28;45545;-73
2021/12/15 05:39:14;;;;;;;4.32;1.88;;;15.00;89.10;;;;;;5090584;28;44890;-74
2021/12/15 05:41:41;;;;;;;3.65;1.50;;;15.10;88.90;;;;;;5091385;28;44660;-74
2021/12/15 05:44:08;;;;;;;6.50;2.00;;;15.20;88.50;;;;;;5090602;28;45100;-73
2021/12/15 05:46:35;;;;;;;3.90;1.90;;;15.20;87.30;;;;;;5090552;28;47229;-73
2021/12/15 05:49:03;;;;;;;3.65;1.70;;;15.10;88.60;;;;;;5091190;28;44976;-72
2021/12/15 05:51:31;;;;;;;3.13;2.25;;;15.20;88.90;;;;;;5091452;28;44748;-73
2021/12/15 05:53:58;;;;;;;2.47;1.85;;;15.20;88.30;;;;;;5090473;28;44847;-73
2021/12/15 05:56:25;;;;;;;5.10;2.22;;;15.20;88.40;;;;;;5089549;28;47233;-72
2021/12/15 05:58:52;;;;;;;5.63;2.33;;;15.20;87.60;;;;;;5089014;28;44976;-72
2021/12/15 06:01:19;;;;;;;4.93;1.88;;;15.20;88.30;;;;;;5089764;28;44739;-73
2021/12/15 06:03:46;;;;;;;4.50;2.28;;;15.20;89.60;;;;;;5090510;28;44798;-73
2021/12/15 06:06:13;;;;;;;4.07;2.40;;;15.20;87.70;;;;;;5090113;28;47314;-73
2021/12/15 06:08:41;;;;;;;6.28;2.20;;;15.10;87.90;;;;;;5088381;28;44620;-73
2021/12/15 06:11:08;;;;;;;4.65;2.00;;;15.10;87.00;;;;;;5089567;28;45026;-73
2021/12/15 06:13:35;;;;;;;5.47;2.25;;;15.20;86.20;;;;;;5087929;28;45063;-73
2021/12/15 06:16:04;;;;;;;3.75;2.30;;;15.00;87.00;;;;;;5090499;28;45203;-73
2021/12/15 06:18:31;;;;;;;4.53;1.90;;;15.00;86.70;;;;;;5090592;28;44655;-73
2021/12/15 06:20:58;;;;;;;8.15;2.40;;;15.00;86.60;;;;;;5083087;28;44734;-73
2021/12/15 06:23:26;;;;;;;3.55;2.53;;;15.00;86.30;;;;;;5087985;28;45012;-74
2021/12/15 06:25:58;;;;;;;4.43;2.70;;;15.10;85.70;;;;;;5090422;28;46418;-73
2021/12/15 06:28:26;;;;;;;3.20;2.53;;;15.10;86.80;;;;;;5084191;28;45098;-73
2021/12/15 06:30:53;;;;;;;3.55;2.55;;;15.20;86.20;;;;;;5089500;28;44999;-73
2021/12/15 06:33:21;;;;;;;3.85;2.33;;;15.00;86.90;;;;;;5091124;28;44760;-73
2021/12/15 06:35:53;;;;;;;3.35;2.28;;;15.20;88.80;;;;;;5091122;28;45508;-73
2021/12/15 06:38:20;;;;;;;4.82;2.50;;;15.00;88.60;;;;;;5090129;28;45394;-73
2021/12/15 06:40:47;;;;;;;5.60;2.35;;;14.90;90.50;;;;;;5090185;28;44741;-73
2021/12/15 06:47:17;;;;;;;4.45;3.15;;;15.20;94.50;;;;;;5074943;28;44848;-76
2021/12/15 06:58:12;;;;;;;5.22;2.70;;;14.50;93.20;;;;;;5083668;28;44895;-74
2021/12/15 07:00:42;;;;;;;5.05;2.83;;;14.70;93.10;;;;;;5079279;28;44692;-74
2021/12/15 07:03:10;;;;;;;3.95;2.47;;;14.80;92.30;;;;;;5079067;28;45067;-74
2021/12/15 07:05:37;;;;;;;3.40;2.17;;;14.80;92.00;;;;;;5087607;28;44882;-74
2021/12/15 07:08:08;;;;;;;4.22;2.80;;;14.80;92.30;;;;;;5084345;28;45222;-74
2021/12/15 07:10:38;;;;;;;4.72;2.15;;;14.60;92.20;;;;;;5084597;28;44728;-74
2021/12/15 07:13:05;;;;;;;6.38;2.88;;;14.50;92.70;;;;;;5079849;28;44949;-74
2021/12/15 07:15:34;;;;;;;5.30;2.90;;;14.40;93.00;;;;;;5087044;28;46694;-74
2021/12/15 07:18:04;;;;;;;7.95;3.42;;;14.40;92.70;;;;;;5088943;28;46587;-74
2021/12/15 07:20:39;;;;;;;4.93;3.10;;;14.20;92.90;;;;;;5088925;28;44949;-74
2021/12/15 07:23:09;;;;;;;6.28;3.45;;;14.50;93.10;;;;;;5086543;28;45187;-74
2021/12/15 07:25:36;;;;;;;6.13;2.90;;;14.80;92.30;;;;;;5088250;28;44912;-74
2021/12/15 07:28:04;;;;;;;5.32;2.90;;;14.70;92.50;;;;;;5089966;28;47250;-74
2021/12/15 07:30:32;;;;;;;3.60;2.60;;;15.10;91.70;;;;;;5089335;28;44833;-74
2021/12/15 07:32:59;;;;;;;4.82;2.50;;;15.10;92.20;;;;;;5087567;28;44875;-74
2021/12/15 07:35:27;;;;;;;4.85;3.00;;;15.10;91.40;;;;;;5085441;28;44812;-74
2021/12/15 07:37:56;;;;;;;4.68;2.65;;;15.10;91.20;;;;;;5090478;28;46299;-74
2021/12/15 07:40:25;;;;;;;4.10;2.72;;;15.00;91.10;;;;;;5085093;28;44754;-74
2021/12/15 07:43:03;;;;;;;4.20;3.10;;;15.40;90.90;;;;;;5088696;28;44693;-74
2021/12/15 07:45:29;;;;;;;4.00;2.83;;;15.30;90.30;;;;;;5078623;28;44785;-74
2021/12/15 07:47:59;;;;;;;6.75;2.88;;;15.10;91.10;;;;;;5090412;28;46878;-74
2021/12/15 07:50:27;;;;;;;3.15;2.20;;;15.20;91.40;;;;;;5086208;28;44693;-74
2021/12/15 07:52:55;;;;;;;4.78;2.30;;;15.30;90.80;;;;;;5089741;28;44623;-74
2021/12/15 07:55:23;;;;;;;4.95;2.75;;;15.30;91.00;;;;;;5084218;28;44663;-74
2021/12/15 07:57:51;;;;;;;2.75;1.98;;;15.30;90.80;;;;;;5093267;28;46602;-74
2021/12/15 08:00:18;;;;;;;4.00;2.25;;;15.30;91.20;;;;;;5092160;28;44723;-75
2021/12/15 08:02:46;;;;;;;4.50;2.00;;;15.30;90.90;;;;;;5092019;28;44782;-75
2021/12/15 08:05:13;;;;;;;4.07;2.40;;;15.30;90.70;;;;;;5092889;28;45132;-75
2021/12/15 08:07:40;;;;;;;4.72;2.30;;;15.40;90.50;;;;;;5083281;28;47092;-75
2021/12/15 08:10:12;;;;;;;2.83;2.05;;;15.20;90.80;;;;;;5078461;28;46140;-76
2021/12/15 08:12:39;;;;;;;3.47;2.42;;;15.30;90.70;;;;;;5084480;28;45022;-75
2021/12/15 08:15:08;;;;;;;3.53;2.25;;;15.20;90.70;;;;;;5081481;28;44770;-75
2021/12/15 08:17:35;;;;;;;3.15;2.05;;;15.30;90.70;;;;;;5085646;28;45347;-75
2021/12/15 08:20:04;;;;;;;2.75;2.15;;;15.30;90.80;;;;;;5093204;28;44683;-74
2021/12/15 08:22:31;;;;;;;4.10;2.10;;;15.20;90.80;;;;;;5090580;28;44813;-74
2021/12/15 08:24:58;;;;;;;3.53;2.28;;;15.20;90.90;;;;;;5086504;28;44972;-74
2021/12/15 08:27:26;;;;;;;3.95;1.90;;;15.30;90.60;;;;;;5085338;28;46315;-74
2021/12/15 08:29:53;;;;;;;3.47;2.00;;;15.30;90.70;;;;;;5081108;28;45359;-74
2021/12/15 08:32:20;;;;;;;4.15;2.30;;;15.20;90.80;;;;;;5090071;28;44732;-74
2021/12/15 08:34:47;;;;;;;3.10;2.13;;;15.20;91.10;;;;;;5090658;28;44986;-74
2021/12/15 08:37:14;;;;;;;2.97;2.05;;;15.20;90.80;;;;;;5091850;28;46618;-74
2021/12/15 08:39:41;;;;;;;4.05;1.90;;;15.30;90.80;;;;;;5091684;28;44679;-74
2021/12/15 08:42:09;;;;;;;5.72;3.35;;;15.20;90.90;;;;;;5085653;28;44702;-74
2021/12/15 08:44:38;;;;;;;5.00;2.35;;;15.20;90.70;;;;;;5092528;28;44888;-74
2021/12/15 08:47:06;;;;;;;5.22;2.08;;;15.20;90.80;;;;;;5092269;28;46619;-74
2021/12/15 08:49:34;;;;;;;5.18;2.28;;;15.30;90.70;;;;;;5092061;28;45074;-74
2021/12/15 08:52:01;;;;;;;2.63;1.90;;;15.30;90.70;;;;;;5084190;28;44651;-74
2021/12/15 08:54:28;;;;;;;6.32;2.20;;;15.30;90.80;;;;;;5072560;28;44806;-75
2021/12/15 08:56:56;;;;;;;3.85;2.08;;;15.30;90.60;;;;;;5078787;28;46968;-75
2021/12/15 08:59:23;;;;;;;3.70;2.03;;;15.20;90.90;;;;;;5085839;28;44764;-75
2021/12/15 09:01:54;;;;;;;3.53;1.70;;;15.30;90.70;;;;;;5086175;28;44697;-75
2021/12/15 09:04:21;;;;;;;4.40;2.00;;;15.30;90.50;;;;;;5089726;28;44789;-74
2021/12/15 09:06:49;;;;;;;3.60;2.05;;;15.10;91.00;;;;;;5088746;28;45540;-74
2021/12/15 09:09:20;;;;;;;3.90;1.90;;;15.10;91.00;;;;;;5086824;28;44953;-74
2021/12/15 09:11:48;;;;;;;3.67;2.25;;;15.10;91.10;;;;;;5083602;28;44646;-74
2021/12/15 09:14:15;;;;;;;4.43;2.17;;;15.00;91.30;;;;;;5083191;28;44736;-74
2021/12/15 09:16:46;;;;;;;2.40;2.10;;;15.00;91.30;;;;;;5085368;28;45266;-74
2021/12/15 09:19:15;;;;;;;2.83;2.00;;;14.90;91.40;;;;;;5087494;28;44649;-74
2021/12/15 09:21:43;;;;;;;2.33;1.73;;;15.00;91.30;;;;;;5082238;28;44586;-74
2021/12/15 09:24:12;;;;;;;3.70;2.08;;;14.90;91.50;;;;;;5090499;28;44995;-74
2021/12/15 09:26:39;;;;;;;4.03;2.05;;;15.00;91.20;;;;;;5091937;28;45216;-74
2021/12/15 09:29:06;;;;;;;5.93;1.83;;;15.00;91.70;;;;;;5090732;28;44623;-74
2021/12/15 09:31:34;;;;;;;4.35;1.92;;;15.00;91.50;;;;;;5082028;28;44661;-74
2021/12/15 09:34:01;;;;;;;2.55;1.80;;;15.10;91.10;;;;;;5085355;28;44887;-74
2021/12/15 09:36:30;;;;;;;2.85;1.90;;;15.10;91.10;;;;;;5090809;28;45248;-74
2021/12/15 09:39:00;;;;;;;2.53;1.83;;;15.10;91.40;;;;;;5091053;28;44631;-74
2021/12/15 09:41:27;;;;;;;5.65;1.88;;;15.10;91.10;;;;;;5091220;28;44613;-76
2021/12/15 09:43:56;;;;;;;3.28;1.88;;;15.00;91.20;;;;;;5092120;28;44678;-75
2021/12/15 09:46:35;;;;;;;5.50;1.80;;;15.00;91.30;;;;;;5090366;28;45196;-75
2021/12/15 09:57:35;;;;;;;4.03;2.20;;;15.00;91.50;;;;;;5090833;28;45096;-75
2021/12/15 10:02:54;;;;;;;2.40;1.90;;;15.10;91.20;;;;;;5083157;28;44576;-76
2021/12/15 10:19:22;;;;;;;3.08;2.30;;;15.00;91.10;;;;;;5090208;28;44914;-76
2021/12/15 10:22:12;;;;;;;3.65;2.30;;;15.00;91.10;;;;;;5087939;28;44849;-76
2021/12/15 10:24:48;;;;;;;3.70;2.03;;;15.10;91.10;;;;;;5077702;28;44717;-76
2021/12/15 10:27:19;;;;;;;3.78;2.25;;;15.00;91.40;;;;;;5088493;28;44726;-76
2021/12/15 10:30:00;;;;;;;3.17;2.17;;;15.00;91.30;;;;;;5090096;28;45454;-76
2021/12/15 10:32:31;;;;;;;3.40;2.17;;;15.00;91.10;;;;;;5079563;28;45058;-76
2021/12/15 10:35:07;;;;;;;4.22;2.60;;;15.10;91.20;;;;;;5090301;28;44677;-76
2021/12/15 10:37:34;;;;;;;2.58;2.13;;;15.00;91.30;;;;;;5081544;28;44973;-76
2021/12/15 10:40:18;;;;;;;2.97;2.38;;;15.10;91.00;;;;;;5087835;28;46685;-75
2021/12/15 10:42:45;;;;;;;5.88;2.03;;;15.20;91.10;;;;;;5091019;28;44721;-75
2021/12/15 10:45:14;;;;;;;2.72;2.05;;;15.20;91.00;;;;;;5089209;28;45892;-75
2021/12/15 10:47:44;;;;;;;3.83;2.25;;;15.20;90.70;;;;;;5091110;28;45250;-75
2021/12/15 10:50:17;;;;;;;2.50;1.88;;;15.20;90.90;;;;;;5090550;28;46668;-75
2021/12/15 10:52:56;;;;;;;3.60;2.63;;;15.10;90.90;;;;;;5090024;28;44985;-75
2021/12/15 10:55:31;;;;;;;3.25;2.00;;;15.10;91.10;;;;;;5089777;28;44727;-75
2021/12/15 10:58:00;;;;;;;4.18;2.30;;;15.20;90.90;;;;;;5088867;28;45022;-75
2021/12/15 11:00:27;;;;;;;4.38;2.50;;;15.10;90.60;;;;;;5088262;28;46629;-75
2021/12/15 11:03:03;;;;;;;3.55;2.35;;;15.20;91.10;;;;;;5084949;28;44892;-75
2021/12/15 11:05:30;;;;;;;2.50;1.95;;;15.10;90.90;;;;;;5088899;28;44748;-75
2021/12/15 11:07:59;;;;;;;3.13;2.47;;;15.20;90.80;;;;;;5090729;28;44711;-75
2021/12/15 11:10:31;;;;;;;5.65;2.42;;;15.20;90.70;;;;;;5080939;28;47109;-75
2021/12/15 11:13:01;;;;;;;4.07;2.35;;;15.20;90.70;;;;;;5089496;28;44541;-76
2021/12/15 11:15:31;;;;;;;3.28;2.30;;;15.20;90.70;;;;;;5089513;28;44795;-76
2021/12/15 11:18:00;;;;;;;6.43;2.50;;;15.10;90.90;;;;;;5090552;28;44800;-76
2021/12/15 11:20:29;;;;;;;4.13;2.28;;;15.20;91.00;;;;;;5090440;28;45319;-76
2021/12/15 11:23:00;;;;;;;3.88;3.03;;;15.10;90.90;;;;;;5081764;28;44697;-76
2021/12/15 11:25:39;;;;;;;4.65;2.33;;;15.10;90.80;;;;;;5087812;28;44737;-76
2021/12/15 11:28:11;;;;;;;3.40;2.40;;;15.10;91.10;;;;;;5094047;28;44989;-76
2021/12/15 11:30:43;;;;;;;3.28;2.40;;;15.10;90.80;;;;;;5092324;28;45190;-75
2021/12/15 11:33:14;;;;;;;3.50;2.15;;;15.20;90.70;;;;;;5092011;28;44634;-75
2021/12/15 11:35:44;;;;;;;2.85;2.55;;;15.10;90.90;;;;;;5092897;28;44663;-75
2021/12/15 11:38:15;;;;;;;3.28;2.40;;;15.10;90.80;;;;;;5093842;28;44721;-75
2021/12/15 11:40:48;;;;;;;3.30;2.28;;;15.20;90.80;;;;;;5091289;28;46445;-75
2021/12/15 11:43:30;;;;;;;3.08;2.50;;;15.20;90.90;;;;;;5086136;28;44757;-75
2021/12/15 11:45:58;;;;;;;3.95;2.70;;;15.20;90.80;;;;;;5084327;28;44607;-76
2021/12/15 11:48:27;;;;;;;3.88;2.75;;;15.20;90.80;;;;;;5093902;28;44800;-76
2021/12/15 11:51:02;;;;;;;5.22;2.75;;;15.20;90.70;;;;;;5093719;28;45490;-75
2021/12/15 11:53:39;;;;;;;4.18;3.05;;;15.30;90.70;;;;;;5093156;28;44669;-75
2021/12/15 11:56:23;;;;;;;5.55;3.30;;;15.30;90.60;;;;;;5091351;28;44501;-75
2021/12/15 11:58:55;;;;;;;4.70;3.25;;;15.30;90.70;;;;;;5088998;28;44701;-75
2021/12/15 12:01:42;;;;;;;6.20;3.15;;;15.20;90.80;;;;;;5090115;28;45219;-75
2021/12/15 12:04:11;;;;;;;4.28;2.88;;;15.20;90.60;;;;;;5091148;28;44820;-75
2021/12/15 12:06:38;;;;;;;6.50;3.75;;;15.20;90.80;;;;;;5093401;28;44592;-75
2021/12/15 12:09:05;;;;;;;4.72;3.38;;;15.10;91.00;;;;;;5090193;28;44623;-76
2021/12/15 12:11:34;;;;;;;5.63;3.20;;;15.10;91.10;;;;;;5089159;28;47105;-76
2021/12/15 12:14:01;;;;;;;5.90;3.47;;;15.00;91.10;;;;;;5090882;28;44624;-76
2021/12/15 12:16:29;;;;;;;8.30;3.70;;;15.10;90.90;;;;;;5083774;28;44775;-76
2021/12/15 12:18:56;;;;;;;6.63;3.55;;;15.10;90.90;;;;;;5093164;28;44867;-76
2021/12/15 12:21:23;;;;;;;5.75;3.47;;;15.00;91.20;;;;;;5092880;28;46746;-78
2021/12/15 12:23:50;;;;;;;4.82;3.60;;;15.00;91.20;;;;;;5092825;28;44788;-76
2021/12/15 12:26:26;;;;;;;4.82;3.15;;;14.90;91.30;;;;;;5073771;28;44600;-76
2021/12/15 12:28:55;;;;;;;5.57;3.78;;;14.90;91.60;;;;;;5078132;28;44999;-76
2021/12/15 12:31:24;;;;;;;5.38;3.60;;;15.00;91.30;;;;;;5092755;28;44986;-76
2021/12/15 12:33:53;;;;;;;4.93;3.45;;;15.10;91.10;;;;;;5091497;28;45291;-76
2021/12/15 12:36:22;;;;;;;5.93;3.33;;;15.10;91.40;;;;;;5079873;28;44829;-76
2021/12/15 12:38:51;;;;;;;5.63;3.60;;;15.20;91.10;;;;;;5092778;28;44801;-76
2021/12/15 12:41:23;;;;;;;7.47;3.85;;;15.20;91.20;;;;;;5091741;28;47728;-76
2021/12/15 12:43:52;;;;;;;6.97;4.00;;;15.20;91.10;;;;;;5092605;28;44808;-75
2021/12/15 12:46:28;;;;;;;6.60;3.95;;;15.30;91.00;;;;;;5084211;28;44734;-75
2021/12/15 12:49:23;;;;;;;7.57;4.38;;;15.30;90.80;;;;;;5083400;28;45095;-75
2021/12/15 13:00:32;;;;;;;6.13;3.95;;;15.20;91.10;;;;;;5090919;28;44659;-75
2021/12/15 13:03:05;;;;;;;7.63;4.72;;;15.20;91.20;;;;;;5083949;28;45235;-75
2021/12/15 13:05:38;;;;;;;7.68;4.30;;;15.20;91.40;;;;;;5088976;28;44729;-75
2021/12/15 13:08:07;;;;;;;8.93;4.32;;;15.20;91.20;;;;;;5089734;28;44647;-75
2021/12/15 13:10:56;;;;;;;9.05;4.85;;;15.20;91.10;;;;;;5083803;28;44910;-75
2021/12/15 13:13:25;;;;;;;7.43;5.03;;;15.30;91.00;;;;;;5084264;28;47336;-75
2021/12/15 13:15:55;;;;;;;7.25;4.70;;;15.20;91.30;;;;;;5091317;28;44665;-75
2021/12/15 13:18:24;;;;;;;8.25;5.15;;;15.20;91.30;;;;;;5091437;28;44949;-75
2021/12/15 13:20:56;;;;;;;9.20;5.63;;;15.20;91.20;;;;;;5092584;28;44872;-75
2021/12/15 13:23:43;;;;;;;8.48;5.38;;;15.10;91.10;;;;;;5084116;28;46643;-75
2021/12/15 13:29:20;;;;;;;11.40;5.78;;;15.10;91.40;;;;;;5091083;28;44618;-75
2021/12/15 13:31:54;;;;;;;10.75;5.65;;;15.00;91.80;;;;;;5088986;28;44718;-75
2021/12/15 13:34:43;;;;;;;10.13;5.72;;;15.10;91.60;;;;;;5086226;28;46807;-75
2021/12/15 13:37:11;;;;;;;10.75;6.10;;;15.10;91.60;;;;;;5084529;28;44702;-75
2021/12/15 13:39:44;;;;;;;10.05;5.60;;;15.10;91.50;;;;;;5089933;28;44705;-75
2021/12/15 13:42:14;;;;;;;11.05;6.65;;;15.10;91.50;;;;;;5092055;28;44821;-75
2021/12/15 13:44:43;;;;;;;11.75;6.25;;;15.00;91.30;;;;;;5091403;28;46881;-75
2021/12/15 13:47:17;;;;;;;11.35;5.90;;;15.10;91.60;;;;;;5091058;28;44824;-75
2021/12/15 13:49:47;;;;;;;10.88;6.68;;;15.20;91.50;;;;;;5089721;28;45178;-75
2021/12/15 13:52:34;;;;;;;11.70;6.53;;;15.20;91.50;;;;;;5090370;28;44811;-75
2021/12/15 13:55:26;;;;;;;10.00;6.13;;;15.20;91.30;;;;;;5082479;28;47346;-76
2021/12/15 13:58:13;;;;;;;11.32;6.60;;;15.20;91.40;;;;;;5084758;28;45119;-76
2021/12/15 14:00:46;;;;;;;8.70;5.70;;;15.20;91.40;;;;;;5081652;28;44692;-76
2021/12/15 14:03:18;;;;;;;9.60;6.05;;;15.10;91.40;;;;;;5083414;28;44826;-76
2021/12/15 14:05:49;;;;;;;12.43;6.68;;;15.20;91.30;;;;;;5089815;28;45690;-76
2021/12/15 14:08:17;;;;;;;9.93;6.15;;;15.20;91.30;;;;;;5091051;28;44757;-76
2021/12/15 14:11:02;;;;;;;16.02;6.38;;;15.30;91.30;;;;;;5090249;28;44643;-76
2021/12/15 14:14:01;;;;;;;9.65;6.35;;;15.20;91.40;;;;;;5086434;28;44893;-76